createdAt,value
2018-10-03T00:00:05.963Z,48.10
2018-10-03T00:01:11.316Z,48.10
2018-10-03T00:02:17.441Z,48.10
2018-10-03T00:03:22.824Z,48.20
2018-10-03T00:04:28.118Z,48.70
2018-10-03T00:05:33.422Z,48.10
2018-10-03T00:06:38.715Z,48.20
2018-10-03T00:07:44.069Z,48.10
2018-10-03T00:08:49.380Z,48.20
2018-10-03T00:09:55.657Z,48.10
2018-10-03T00:11:01.016Z,48.10
2018-10-03T00:12:08.085Z,48.10
2018-10-03T00:13:13.520Z,48.10
2018-10-03T00:14:19.413Z,48.10
2018-10-03T00:15:24.824Z,48.10
2018-10-03T00:16:30.123Z,48.20
2018-10-03T00:17:35.490Z,48.20
2018-10-03T00:18:40.828Z,48.10
2018-10-03T00:19:46.317Z,48.10
2018-10-03T00:20:52.518Z,48.20
2018-10-03T00:21:58.065Z,48.20
2018-10-03T00:23:03.544Z,48.20
2018-10-03T00:24:09.689Z,48.20
2018-10-03T00:25:15.024Z,48.20
2018-10-03T00:26:20.522Z,48.30
2018-10-03T00:27:25.879Z,48.30
2018-10-03T00:28:32.120Z,48.20
2018-10-03T00:29:37.613Z,48.20
2018-10-03T00:30:42.909Z,48.30
2018-10-03T00:31:48.383Z,48.90
2018-10-03T00:32:53.737Z,48.20
2018-10-03T00:33:59.274Z,48.20
2018-10-03T00:35:05.531Z,48.30
2018-10-03T00:36:11.009Z,48.30
2018-10-03T00:37:17.310Z,48.20
2018-10-03T00:38:22.646Z,48.30
2018-10-03T00:39:28.908Z,48.40
2018-10-03T00:40:34.399Z,48.30
2018-10-03T00:41:39.776Z,48.30
2018-10-03T00:42:45.088Z,48.30
2018-10-03T00:43:51.325Z,48.30
2018-10-03T00:44:57.711Z,48.30
2018-10-03T00:46:03.044Z,48.30
2018-10-03T00:47:09.234Z,48.30
2018-10-03T00:48:14.624Z,48.30
2018-10-03T00:49:20.233Z,48.30
2018-10-03T00:50:25.679Z,48.30
2018-10-03T00:51:31.296Z,48.50
2018-10-03T00:52:37.555Z,48.30
2018-10-03T00:53:44.060Z,48.30
2018-10-03T00:54:49.345Z,48.40
2018-10-03T00:55:54.652Z,49.10
2018-10-03T00:57:00.019Z,48.40
2018-10-03T00:58:05.413Z,48.30
2018-10-03T00:59:10.996Z,48.30
2018-10-03T01:00:17.288Z,48.30
2018-10-03T01:01:22.741Z,48.40
2018-10-03T01:02:29.000Z,48.40
2018-10-03T01:03:34.328Z,48.40
2018-10-03T01:04:39.615Z,48.40
2018-10-03T01:05:44.973Z,48.40
2018-10-03T01:06:50.507Z,48.50
2018-10-03T01:07:55.879Z,48.50
2018-10-03T01:09:01.335Z,48.40
2018-10-03T01:10:06.700Z,48.50
2018-10-03T01:11:12.990Z,48.50
2018-10-03T01:12:18.554Z,48.40
2018-10-03T01:13:23.953Z,48.40
2018-10-03T01:14:29.317Z,48.40
2018-10-03T01:15:34.651Z,48.50
2018-10-03T01:16:40.044Z,48.40
2018-10-03T01:17:46.300Z,48.50
2018-10-03T01:18:51.706Z,48.40
2018-10-03T01:19:58.015Z,48.50
2018-10-03T01:21:03.563Z,48.60
2018-10-03T01:22:09.065Z,48.70
2018-10-03T01:23:14.547Z,48.60
2018-10-03T01:24:19.926Z,48.50
2018-10-03T01:25:25.440Z,48.60
2018-10-03T01:26:30.940Z,48.60
2018-10-03T01:27:36.289Z,48.50
2018-10-03T01:28:41.748Z,48.50
2018-10-03T01:29:47.090Z,48.50
2018-10-03T01:30:52.424Z,48.50
2018-10-03T01:31:58.672Z,48.50
2018-10-03T01:33:03.992Z,48.50
2018-10-03T01:34:09.372Z,48.60
2018-10-03T01:35:15.552Z,48.60
2018-10-03T01:36:20.851Z,48.50
2018-10-03T01:37:26.113Z,48.50
2018-10-03T01:38:31.561Z,48.50
2018-10-03T01:39:36.942Z,48.50
2018-10-03T01:40:42.382Z,48.60
2018-10-03T01:41:47.683Z,48.50
2018-10-03T01:42:53.066Z,48.60
2018-10-03T01:43:58.412Z,48.50
2018-10-03T01:45:03.837Z,48.60
2018-10-03T01:46:11.600Z,48.60
2018-10-03T01:47:17.855Z,48.60
2018-10-03T01:48:23.178Z,48.60
2018-10-03T01:49:28.498Z,48.60
2018-10-03T01:50:34.724Z,48.60
2018-10-03T01:51:40.895Z,48.60
2018-10-03T01:52:46.210Z,48.60
2018-10-03T01:53:52.363Z,48.60
2018-10-03T01:54:57.651Z,48.70
2018-10-03T01:56:03.434Z,48.60
2018-10-03T01:57:08.908Z,48.70
2018-10-03T01:58:14.993Z,48.60
2018-10-03T01:59:20.273Z,48.60
2018-10-03T02:00:25.531Z,48.70
2018-10-03T02:01:31.646Z,48.70
2018-10-03T02:02:37.078Z,48.60
2018-10-03T02:03:42.342Z,48.70
2018-10-03T02:04:47.635Z,48.60
2018-10-03T02:05:52.929Z,48.60
2018-10-03T02:06:58.403Z,48.70
2018-10-03T02:08:03.873Z,48.70
2018-10-03T02:09:09.519Z,48.70
2018-10-03T02:10:15.683Z,48.80
2018-10-03T02:11:21.160Z,48.70
2018-10-03T02:12:27.313Z,48.80
2018-10-03T02:13:33.477Z,48.70
2018-10-03T02:14:38.878Z,48.70
2018-10-03T02:15:44.206Z,48.80
2018-10-03T02:16:49.559Z,48.70
2018-10-03T02:17:54.995Z,48.70
2018-10-03T02:19:00.495Z,48.80
2018-10-03T02:20:05.970Z,48.80
2018-10-03T02:21:12.191Z,48.70
2018-10-03T02:22:17.731Z,48.80
2018-10-03T02:23:23.211Z,48.70
2018-10-03T02:24:28.578Z,48.70
2018-10-03T02:25:33.892Z,49.40
2018-10-03T02:26:39.163Z,48.80
2018-10-03T02:27:44.538Z,48.70
2018-10-03T02:28:49.970Z,48.70
2018-10-03T02:29:55.506Z,48.70
2018-10-03T02:31:00.817Z,48.80
2018-10-03T02:32:06.150Z,48.70
2018-10-03T02:33:12.589Z,48.80
2018-10-03T02:34:18.025Z,48.70
2018-10-03T02:35:23.369Z,48.70
2018-10-03T02:36:28.780Z,48.80
2018-10-03T02:37:34.117Z,48.70
2018-10-03T02:38:39.578Z,48.70
2018-10-03T02:39:44.888Z,48.70
2018-10-03T02:40:50.223Z,48.70
2018-10-03T02:41:55.483Z,48.80
2018-10-03T02:43:01.853Z,48.80
2018-10-03T02:44:07.171Z,48.70
2018-10-03T02:45:12.478Z,48.80
2018-10-03T02:46:17.944Z,48.80
2018-10-03T02:47:23.226Z,48.80
2018-10-03T02:48:28.514Z,48.80
2018-10-03T02:49:33.851Z,48.80
2018-10-03T02:50:39.248Z,48.80
2018-10-03T02:51:44.699Z,48.80
2018-10-03T02:52:50.932Z,48.80
2018-10-03T02:53:56.218Z,48.80
2018-10-03T02:55:02.422Z,48.80
2018-10-03T02:56:07.717Z,48.80
2018-10-03T02:57:13.892Z,48.80
2018-10-03T02:58:20.154Z,48.80
2018-10-03T02:59:25.565Z,48.80
2018-10-03T03:00:30.999Z,48.80
2018-10-03T03:01:36.493Z,48.80
2018-10-03T03:02:41.778Z,48.90
2018-10-03T03:03:47.991Z,48.80
2018-10-03T03:04:53.319Z,48.80
2018-10-03T03:05:58.655Z,48.80
2018-10-03T03:07:04.059Z,48.90
2018-10-03T03:08:09.466Z,48.80
2018-10-03T03:09:15.643Z,48.80
2018-10-03T03:10:20.894Z,48.80
2018-10-03T03:11:26.210Z,48.80
2018-10-03T03:12:31.741Z,48.90
2018-10-03T03:13:37.966Z,48.80
2018-10-03T03:14:44.153Z,48.90
2018-10-03T03:15:49.489Z,48.80
2018-10-03T03:16:55.705Z,48.80
2018-10-03T03:18:01.885Z,49.00
2018-10-03T03:19:08.077Z,48.90
2018-10-03T03:20:13.423Z,48.80
2018-10-03T03:21:19.563Z,48.80
2018-10-03T03:22:25.761Z,48.80
2018-10-03T03:23:31.081Z,48.90
2018-10-03T03:24:36.315Z,48.90
2018-10-03T03:25:41.749Z,48.90
2018-10-03T03:26:47.097Z,48.90
2018-10-03T03:27:52.409Z,48.90
2018-10-03T03:28:57.742Z,48.90
2018-10-03T03:30:04.235Z,48.90
2018-10-03T03:31:09.506Z,48.90
2018-10-03T03:32:14.931Z,48.90
2018-10-03T03:33:20.256Z,48.90
2018-10-03T03:34:26.427Z,48.90
2018-10-03T03:35:31.684Z,48.90
2018-10-03T03:36:36.948Z,48.90
2018-10-03T03:37:42.236Z,48.90
2018-10-03T03:38:47.551Z,48.90
2018-10-03T03:39:52.893Z,48.90
2018-10-03T03:40:58.235Z,48.90
2018-10-03T03:42:03.672Z,49.00
2018-10-03T03:43:08.977Z,48.90
2018-10-03T03:44:14.368Z,49.00
2018-10-03T03:45:19.641Z,48.90
2018-10-03T03:46:25.866Z,48.90
2018-10-03T03:47:32.129Z,48.90
2018-10-03T03:48:38.236Z,48.90
2018-10-03T03:49:43.653Z,49.00
2018-10-03T03:50:48.998Z,49.60
2018-10-03T03:51:55.140Z,49.00
2018-10-03T03:53:00.505Z,49.00
2018-10-03T03:54:05.922Z,49.00
2018-10-03T03:55:12.030Z,49.00
2018-10-03T03:56:17.355Z,49.10
2018-10-03T03:57:22.666Z,49.00
2018-10-03T03:58:28.002Z,49.00
2018-10-03T03:59:33.413Z,49.00
2018-10-03T04:00:38.713Z,49.00
2018-10-03T04:01:44.058Z,49.00
2018-10-03T04:02:49.346Z,49.70
2018-10-03T04:03:54.617Z,49.00
2018-10-03T04:04:59.930Z,49.00
2018-10-03T04:06:05.470Z,49.10
2018-10-03T04:07:11.639Z,49.10
2018-10-03T04:08:17.131Z,49.00
2018-10-03T04:09:23.322Z,49.00
2018-10-03T04:10:28.865Z,49.00
2018-10-03T04:11:34.136Z,49.10
2018-10-03T04:12:39.548Z,49.10
2018-10-03T04:13:44.861Z,49.00
2018-10-03T04:14:50.207Z,49.10
2018-10-03T04:15:55.437Z,49.10
2018-10-03T04:17:01.739Z,49.00
2018-10-03T04:18:06.998Z,49.10
2018-10-03T04:19:12.395Z,49.00
2018-10-03T04:20:17.793Z,49.10
2018-10-03T04:21:23.958Z,49.10
2018-10-03T04:22:30.138Z,49.10
2018-10-03T04:23:35.595Z,49.10
2018-10-03T04:24:41.845Z,49.10
2018-10-03T04:25:48.018Z,49.10
2018-10-03T04:26:53.382Z,49.10
2018-10-03T04:27:58.689Z,49.10
2018-10-03T04:29:03.967Z,49.10
2018-10-03T04:30:09.321Z,49.10
2018-10-03T04:31:14.570Z,49.10
2018-10-03T04:32:19.876Z,49.10
2018-10-03T04:33:25.247Z,49.10
2018-10-03T04:34:30.645Z,49.10
2018-10-03T04:35:35.968Z,49.10
2018-10-03T04:36:41.205Z,49.10
2018-10-03T04:37:46.496Z,49.10
2018-10-03T04:38:51.956Z,49.10
2018-10-03T04:39:57.353Z,49.10
2018-10-03T04:41:03.564Z,49.10
2018-10-03T04:42:08.988Z,49.10
2018-10-03T04:43:15.123Z,49.10
2018-10-03T04:44:21.324Z,49.10
2018-10-03T04:45:26.685Z,49.10
2018-10-03T04:46:32.060Z,49.10
2018-10-03T04:47:38.244Z,49.20
2018-10-03T04:48:43.565Z,49.10
2018-10-03T04:49:48.838Z,49.10
2018-10-03T04:50:55.010Z,49.10
2018-10-03T04:52:00.425Z,49.10
2018-10-03T04:53:05.693Z,49.00
2018-10-03T04:54:10.951Z,49.00
2018-10-03T04:55:16.300Z,49.00
2018-10-03T04:56:21.636Z,48.90
2018-10-03T04:57:27.755Z,48.90
2018-10-03T04:58:33.026Z,49.00
2018-10-03T04:59:38.305Z,49.00
2018-10-03T05:00:43.549Z,49.00
2018-10-03T05:01:49.692Z,49.10
2018-10-03T05:02:54.976Z,49.10
2018-10-03T05:04:01.821Z,49.10
2018-10-03T05:05:07.180Z,49.10
2018-10-03T05:06:13.374Z,49.10
2018-10-03T05:07:19.522Z,49.10
2018-10-03T05:08:24.822Z,49.20
2018-10-03T05:09:30.055Z,49.20
2018-10-03T05:10:35.296Z,49.20
2018-10-03T05:11:40.726Z,49.20
2018-10-03T05:12:45.992Z,49.20
2018-10-03T05:13:51.462Z,49.20
2018-10-03T05:14:56.855Z,49.20
2018-10-03T05:16:02.182Z,49.20
2018-10-03T05:17:07.442Z,49.20
2018-10-03T05:18:12.794Z,49.20
2018-10-03T05:19:18.056Z,49.20
2018-10-03T05:20:24.200Z,49.20
2018-10-03T05:21:29.820Z,49.30
2018-10-03T05:22:35.245Z,49.20
2018-10-03T05:23:41.421Z,49.10
2018-10-03T05:24:46.717Z,49.00
2018-10-03T05:25:52.037Z,49.00
2018-10-03T05:26:57.435Z,49.00
2018-10-03T05:28:03.023Z,49.00
2018-10-03T05:29:08.271Z,49.00
2018-10-03T05:30:13.666Z,48.90
2018-10-03T05:31:18.956Z,48.90
2018-10-03T05:32:24.415Z,48.90
2018-10-03T05:33:29.786Z,48.80
2018-10-03T05:34:35.889Z,48.90
2018-10-03T05:35:42.030Z,48.80
2018-10-03T05:36:47.408Z,48.80
2018-10-03T05:37:53.616Z,48.70
2018-10-03T05:38:58.877Z,48.70
2018-10-03T05:40:04.188Z,48.70
2018-10-03T05:41:09.629Z,48.70
2018-10-03T05:42:15.713Z,48.60
2018-10-03T05:43:20.989Z,48.60
2018-10-03T05:44:27.151Z,48.60
2018-10-03T05:45:32.444Z,48.50
2018-10-03T05:46:37.692Z,48.50
2018-10-03T05:47:43.849Z,48.50
2018-10-03T05:48:49.433Z,48.50
2018-10-03T05:49:54.795Z,48.60
2018-10-03T05:51:00.194Z,48.60
2018-10-03T05:52:05.625Z,48.50
2018-10-03T05:53:11.815Z,48.50
2018-10-03T05:54:17.099Z,48.40
2018-10-03T05:55:23.232Z,48.40
2018-10-03T05:56:28.550Z,48.40
2018-10-03T05:57:33.857Z,48.40
2018-10-03T05:58:39.193Z,48.40
2018-10-03T05:59:44.606Z,48.40
2018-10-03T06:00:50.020Z,48.30
2018-10-03T06:01:55.512Z,48.30
2018-10-03T06:03:00.783Z,48.20
2018-10-03T06:04:06.057Z,48.20
2018-10-03T06:05:11.382Z,48.20
2018-10-03T06:06:16.735Z,48.20
2018-10-03T06:07:22.848Z,48.10
2018-10-03T06:08:28.117Z,48.10
2018-10-03T06:09:33.639Z,48.20
2018-10-03T06:10:38.980Z,48.10
2018-10-03T06:11:44.319Z,48.10
2018-10-03T06:12:49.644Z,48.10
2018-10-03T06:13:55.866Z,48.10
2018-10-03T06:15:01.209Z,48.10
2018-10-03T06:16:07.368Z,48.00
2018-10-03T06:17:12.654Z,47.90
2018-10-03T06:18:18.003Z,47.90
2018-10-03T06:19:24.205Z,47.90
2018-10-03T06:20:30.394Z,47.90
2018-10-03T06:21:35.723Z,47.90
2018-10-03T06:22:41.094Z,47.90
2018-10-03T06:23:46.404Z,47.90
2018-10-03T06:24:51.734Z,47.80
2018-10-03T06:25:57.141Z,47.80
2018-10-03T06:27:02.436Z,47.80
2018-10-03T06:28:07.842Z,47.80
2018-10-03T06:29:13.140Z,47.90
2018-10-03T06:30:19.315Z,47.90
2018-10-03T06:31:25.456Z,47.80
2018-10-03T06:32:30.798Z,47.80
2018-10-03T06:33:36.166Z,47.80
2018-10-03T06:34:41.460Z,47.80
2018-10-03T06:35:46.854Z,47.80
2018-10-03T06:36:52.330Z,47.80
2018-10-03T06:37:58.032Z,47.80
2018-10-03T06:39:03.485Z,47.80
2018-10-03T06:40:09.655Z,48.50
2018-10-03T06:41:14.985Z,47.80
2018-10-03T06:42:21.243Z,47.80
2018-10-03T06:43:26.874Z,48.50
2018-10-03T06:44:32.119Z,47.80
2018-10-03T06:45:37.907Z,47.80
2018-10-03T06:46:43.136Z,47.80
2018-10-03T06:47:48.436Z,47.70
2018-10-03T06:48:53.703Z,47.70
2018-10-03T06:49:59.130Z,47.70
2018-10-03T06:51:04.431Z,47.60
2018-10-03T06:52:10.610Z,47.60
2018-10-03T06:53:17.243Z,47.50
2018-10-03T06:54:22.802Z,47.50
2018-10-03T06:55:28.191Z,47.40
2018-10-03T06:56:33.457Z,47.40
2018-10-03T06:57:38.770Z,47.30
2018-10-03T06:58:44.123Z,47.50
2018-10-03T06:59:49.413Z,47.30
2018-10-03T07:00:54.721Z,47.30
2018-10-03T07:02:00.052Z,47.20
2018-10-03T07:03:06.200Z,47.10
2018-10-03T07:04:12.380Z,47.80
2018-10-03T07:05:18.746Z,47.20
2018-10-03T07:06:24.967Z,47.10
2018-10-03T07:07:30.295Z,47.10
2018-10-03T07:08:35.630Z,47.70
2018-10-03T07:09:41.080Z,47.00
2018-10-03T07:10:46.396Z,47.00
2018-10-03T07:11:52.542Z,47.00
2018-10-03T07:12:58.132Z,46.90
2018-10-03T07:14:04.584Z,47.00
2018-10-03T07:15:09.868Z,47.00
2018-10-03T07:16:15.101Z,47.00
2018-10-03T07:17:20.377Z,46.90
2018-10-03T07:18:25.762Z,46.90
2018-10-03T07:19:31.992Z,46.90
2018-10-03T07:20:38.167Z,46.90
2018-10-03T07:21:43.450Z,46.90
2018-10-03T07:22:48.788Z,46.90
2018-10-03T07:23:54.962Z,46.90
2018-10-03T07:25:00.305Z,47.00
2018-10-03T07:26:06.490Z,46.90
2018-10-03T07:27:12.629Z,46.90
2018-10-03T07:28:17.911Z,46.90
2018-10-03T07:29:23.165Z,47.60
2018-10-03T07:30:28.433Z,47.00
2018-10-03T07:31:34.397Z,47.00
2018-10-03T07:32:39.751Z,47.00
2018-10-03T07:33:45.318Z,47.00
2018-10-03T07:34:51.487Z,46.90
2018-10-03T07:35:57.718Z,46.90
2018-10-03T07:37:04.027Z,46.90
2018-10-03T07:38:10.201Z,46.90
2018-10-03T07:39:15.560Z,46.90
2018-10-03T07:40:21.389Z,46.90
2018-10-03T07:41:27.681Z,46.90
2018-10-03T07:42:33.885Z,47.00
2018-10-03T07:43:40.522Z,47.00
2018-10-03T07:44:46.093Z,46.90
2018-10-03T07:45:51.479Z,47.00
2018-10-03T07:46:57.119Z,47.10
2018-10-03T07:48:02.763Z,47.10
2018-10-03T07:49:08.231Z,47.10
2018-10-03T07:50:13.709Z,47.10
2018-10-03T07:51:19.492Z,47.10
2018-10-03T07:52:24.865Z,47.10
2018-10-03T07:53:30.306Z,47.10
2018-10-03T07:54:35.627Z,47.10
2018-10-03T07:55:40.985Z,47.20
2018-10-03T07:56:46.313Z,47.20
2018-10-03T07:57:52.463Z,47.20
2018-10-03T07:58:58.052Z,47.20
2018-10-03T08:00:03.560Z,47.10
2018-10-03T08:01:08.899Z,47.10
2018-10-03T08:02:14.403Z,47.00
2018-10-03T08:03:19.851Z,47.00
2018-10-03T08:04:26.024Z,47.00
2018-10-03T08:05:31.425Z,47.10
2018-10-03T08:06:36.876Z,47.10
2018-10-03T08:07:42.302Z,47.00
2018-10-03T08:08:47.662Z,46.90
2018-10-03T08:09:53.914Z,46.80
2018-10-03T08:11:00.207Z,46.70
2018-10-03T08:12:06.382Z,46.60
2018-10-03T08:13:12.663Z,46.60
2018-10-03T08:14:18.877Z,46.50
2018-10-03T08:15:24.343Z,46.50
2018-10-03T08:16:30.620Z,46.50
2018-10-03T08:17:35.965Z,46.40
2018-10-03T08:18:41.461Z,46.40
2018-10-03T08:19:47.613Z,46.30
2018-10-03T08:20:52.901Z,46.30
2018-10-03T08:21:58.400Z,46.30
2018-10-03T08:23:03.742Z,46.40
2018-10-03T08:24:09.919Z,46.40
2018-10-03T08:25:15.267Z,46.30
2018-10-03T08:26:21.640Z,46.30
2018-10-03T08:27:27.120Z,46.30
2018-10-03T08:28:32.601Z,46.20
2018-10-03T08:29:38.013Z,46.20
2018-10-03T08:30:43.796Z,46.20
2018-10-03T08:31:50.030Z,46.20
2018-10-03T08:32:55.726Z,45.90
2018-10-03T08:34:01.314Z,45.60
2018-10-03T08:35:06.679Z,45.50
2018-10-03T08:36:12.068Z,45.40
2018-10-03T08:37:17.483Z,45.30
2018-10-03T08:38:24.014Z,45.40
2018-10-03T08:39:29.499Z,45.40
2018-10-03T08:40:35.262Z,45.40
2018-10-03T08:41:40.672Z,45.20
2018-10-03T08:42:45.993Z,45.10
2018-10-03T08:43:51.482Z,45.20
2018-10-03T08:44:56.979Z,45.20
2018-10-03T08:46:02.351Z,45.00
2018-10-03T08:47:07.678Z,45.00
2018-10-03T08:48:13.482Z,45.00
2018-10-03T08:49:18.815Z,44.90
2018-10-03T08:50:24.165Z,44.80
2018-10-03T08:51:29.540Z,44.70
2018-10-03T08:52:35.021Z,44.50
2018-10-03T08:53:40.515Z,44.40
2018-10-03T08:54:46.065Z,44.40
2018-10-03T08:55:51.646Z,44.30
2018-10-03T08:56:57.379Z,44.30
2018-10-03T08:58:03.723Z,44.30
2018-10-03T08:59:09.486Z,44.40
2018-10-03T09:00:15.761Z,44.30
2018-10-03T09:01:22.094Z,44.30
2018-10-03T09:02:27.711Z,44.40
2018-10-03T09:03:33.477Z,44.30
2018-10-03T09:04:39.089Z,44.10
2018-10-03T09:05:44.504Z,44.00
2018-10-03T09:06:49.949Z,44.00
2018-10-03T09:07:55.326Z,44.00
2018-10-03T09:09:00.906Z,44.00
2018-10-03T09:10:06.547Z,44.00
2018-10-03T09:11:12.161Z,43.90
2018-10-03T09:12:17.917Z,43.90
2018-10-03T09:13:23.441Z,44.00
2018-10-03T09:14:29.762Z,44.00
2018-10-03T09:15:35.210Z,44.10
2018-10-03T09:16:41.506Z,44.30
2018-10-03T09:17:47.781Z,44.30
2018-10-03T09:18:53.333Z,44.30
2018-10-03T09:19:58.768Z,44.20
2018-10-03T09:21:04.226Z,44.00
2018-10-03T09:22:09.699Z,44.00
2018-10-03T09:23:15.153Z,44.10
2018-10-03T09:24:20.509Z,44.00
2018-10-03T09:25:25.923Z,43.80
2018-10-03T09:26:31.517Z,43.80
2018-10-03T09:27:36.991Z,43.80
2018-10-03T09:28:43.354Z,43.90
2018-10-03T09:29:48.780Z,43.70
2018-10-03T09:30:54.235Z,43.50
2018-10-03T09:31:59.684Z,43.40
2018-10-03T09:33:05.992Z,43.60
2018-10-03T09:34:12.239Z,43.50
2018-10-03T09:35:18.593Z,43.50
2018-10-03T09:36:24.163Z,43.60
2018-10-03T09:37:29.728Z,43.80
2018-10-03T09:38:35.206Z,43.80
2018-10-03T09:39:40.795Z,43.80
2018-10-03T09:40:46.307Z,43.90
2018-10-03T09:41:51.753Z,43.80
2018-10-03T09:42:57.186Z,43.60
2018-10-03T09:44:02.622Z,43.40
2018-10-03T09:45:08.056Z,43.40
2018-10-03T09:46:14.293Z,43.40
2018-10-03T09:47:19.652Z,43.30
2018-10-03T09:48:25.359Z,43.30
2018-10-03T09:49:30.846Z,43.30
2018-10-03T09:50:37.154Z,43.20
2018-10-03T09:51:42.619Z,43.20
2018-10-03T09:52:48.878Z,43.20
2018-10-03T09:53:54.280Z,43.00
2018-10-03T09:54:59.590Z,42.90
2018-10-03T09:56:04.977Z,42.90
2018-10-03T09:57:10.465Z,43.00
2018-10-03T09:58:15.895Z,42.90
2018-10-03T09:59:21.393Z,42.90
2018-10-03T10:00:26.921Z,42.90
2018-10-03T10:01:32.361Z,43.00
2018-10-03T10:02:37.717Z,42.90
2018-10-03T10:03:43.216Z,42.80
2018-10-03T10:04:48.575Z,42.60
2018-10-03T10:05:54.931Z,42.60
2018-10-03T10:07:00.515Z,42.60
2018-10-03T10:08:05.902Z,42.60
2018-10-03T10:09:11.406Z,42.60
2018-10-03T10:10:16.951Z,42.60
2018-10-03T10:11:22.296Z,42.50
2018-10-03T10:12:27.597Z,42.60
2018-10-03T10:13:33.093Z,42.50
2018-10-03T10:14:38.433Z,42.50
2018-10-03T10:15:44.166Z,42.30
2018-10-03T10:16:49.693Z,42.20
2018-10-03T10:17:55.826Z,42.20
2018-10-03T10:19:02.063Z,42.30
2018-10-03T10:20:07.424Z,42.40
2018-10-03T10:21:13.556Z,42.50
2018-10-03T10:22:18.965Z,42.50
2018-10-03T10:23:25.206Z,42.50
2018-10-03T10:24:30.593Z,42.50
2018-10-03T10:25:36.813Z,42.50
2018-10-03T10:26:42.267Z,42.60
2018-10-03T10:27:48.608Z,42.60
2018-10-03T10:28:54.008Z,42.70
2018-10-03T10:29:59.440Z,42.70
2018-10-03T10:31:05.677Z,42.70
2018-10-03T10:32:11.268Z,42.80
2018-10-03T10:33:17.521Z,42.80
2018-10-03T10:34:23.846Z,42.80
2018-10-03T10:35:29.519Z,42.80
2018-10-03T10:36:35.789Z,42.80
2018-10-03T10:37:41.599Z,42.80
2018-10-03T10:38:47.372Z,42.80
2018-10-03T10:39:52.865Z,42.80
2018-10-03T10:40:58.756Z,42.80
2018-10-03T10:42:04.144Z,42.80
2018-10-03T10:43:11.212Z,42.80
2018-10-03T10:44:16.729Z,42.80
2018-10-03T10:45:22.441Z,42.90
2018-10-03T10:46:28.199Z,42.90
2018-10-03T10:47:33.761Z,42.90
2018-10-03T10:48:40.362Z,42.90
2018-10-03T10:49:45.780Z,42.90
2018-10-03T10:50:52.092Z,42.90
2018-10-03T10:51:57.456Z,42.90
2018-10-03T10:53:03.061Z,42.80
2018-10-03T10:54:08.674Z,42.80
2018-10-03T10:55:14.978Z,42.90
2018-10-03T10:56:21.310Z,42.90
2018-10-03T10:57:26.744Z,42.80
2018-10-03T10:58:32.364Z,42.70
2018-10-03T10:59:38.207Z,42.50
2018-10-03T11:00:43.693Z,42.50
2018-10-03T11:01:49.148Z,42.50
2018-10-03T11:02:54.553Z,42.60
2018-10-03T11:04:00.139Z,42.60
2018-10-03T11:05:05.790Z,42.70
2018-10-03T11:06:11.461Z,42.70
2018-10-03T11:07:17.043Z,42.70
2018-10-03T11:08:22.591Z,42.80
2018-10-03T11:09:28.026Z,42.90
2018-10-03T11:10:33.482Z,42.90
2018-10-03T11:11:39.119Z,43.10
2018-10-03T11:12:44.874Z,43.00
2018-10-03T11:13:50.203Z,42.90
2018-10-03T11:14:55.622Z,42.90
2018-10-03T11:16:00.990Z,42.80
2018-10-03T11:17:06.654Z,42.70
2018-10-03T11:18:12.952Z,42.70
2018-10-03T11:19:19.216Z,42.70
2018-10-03T11:20:24.651Z,42.70
2018-10-03T11:21:30.173Z,42.60
2018-10-03T11:22:36.597Z,42.50
2018-10-03T11:23:42.304Z,42.50
2018-10-03T11:24:48.616Z,42.60
2018-10-03T11:25:53.877Z,42.60
2018-10-03T11:26:59.244Z,42.70
2018-10-03T11:28:05.421Z,42.70
2018-10-03T11:29:10.937Z,42.70
2018-10-03T11:30:16.347Z,42.60
2018-10-03T11:31:21.843Z,42.60
2018-10-03T11:32:28.139Z,42.30
2018-10-03T11:33:34.496Z,42.20
2018-10-03T11:34:39.928Z,42.20
2018-10-03T11:35:45.313Z,42.20
2018-10-03T11:36:50.649Z,42.10
2018-10-03T11:37:56.003Z,42.10
2018-10-03T11:39:01.412Z,42.10
2018-10-03T11:40:06.844Z,42.00
2018-10-03T11:41:12.205Z,41.80
2018-10-03T11:42:17.623Z,41.70
2018-10-03T11:43:23.221Z,41.70
2018-10-03T11:44:29.863Z,41.70
2018-10-03T11:45:35.194Z,41.60
2018-10-03T11:46:40.669Z,41.60
2018-10-03T11:47:46.204Z,41.50
2018-10-03T11:48:52.472Z,41.50
2018-10-03T11:49:57.969Z,41.50
2018-10-03T11:51:04.348Z,41.60
2018-10-03T11:52:09.696Z,41.60
2018-10-03T11:53:16.079Z,41.70
2018-10-03T11:54:21.485Z,41.70
2018-10-03T11:55:27.169Z,41.70
2018-10-03T11:56:33.446Z,41.70
2018-10-03T11:57:38.784Z,41.70
2018-10-03T11:58:44.246Z,41.70
2018-10-03T11:59:49.786Z,41.60
2018-10-03T12:00:56.041Z,41.60
2018-10-03T12:02:01.701Z,41.60
2018-10-03T12:03:07.157Z,41.60
2018-10-03T12:04:12.622Z,41.70
2018-10-03T12:05:17.960Z,41.70
2018-10-03T12:06:24.930Z,41.70
2018-10-03T12:07:30.320Z,41.70
2018-10-03T12:08:35.784Z,41.70
2018-10-03T12:09:41.208Z,41.70
2018-10-03T12:10:46.694Z,41.80
2018-10-03T12:11:52.987Z,41.90
2018-10-03T12:12:58.394Z,41.90
2018-10-03T12:14:03.792Z,41.90
2018-10-03T12:15:09.187Z,42.00
2018-10-03T12:16:14.787Z,41.90
2018-10-03T12:17:21.019Z,41.80
2018-10-03T12:18:26.458Z,41.70
2018-10-03T12:19:31.813Z,41.70
2018-10-03T12:20:38.048Z,41.70
2018-10-03T12:21:43.859Z,41.70
2018-10-03T12:22:49.430Z,41.70
2018-10-03T12:23:54.795Z,41.70
2018-10-03T12:25:00.152Z,41.70
2018-10-03T12:26:05.739Z,41.70
2018-10-03T12:27:11.241Z,41.80
2018-10-03T12:28:16.814Z,41.80
2018-10-03T12:29:22.479Z,42.00
2018-10-03T12:30:27.888Z,42.10
2018-10-03T12:31:33.412Z,42.20
2018-10-03T12:32:38.822Z,42.30
2018-10-03T12:33:44.387Z,42.40
2018-10-03T12:34:49.754Z,42.50
2018-10-03T12:35:55.293Z,42.60
2018-10-03T12:37:01.651Z,42.80
2018-10-03T12:38:07.646Z,42.80
2018-10-03T12:39:13.232Z,42.80
2018-10-03T12:40:18.617Z,42.90
2018-10-03T12:41:23.993Z,43.00
2018-10-03T12:42:29.329Z,43.00
2018-10-03T12:43:34.943Z,43.10
2018-10-03T12:44:40.610Z,43.10
2018-10-03T12:45:46.943Z,43.10
2018-10-03T12:46:53.298Z,43.20
2018-10-03T12:47:58.768Z,43.30
2018-10-03T12:49:04.407Z,43.40
2018-10-03T12:50:09.916Z,43.40
2018-10-03T12:51:16.177Z,43.50
2018-10-03T12:52:21.573Z,43.50
2018-10-03T12:53:27.063Z,43.60
2018-10-03T12:54:32.475Z,44.20
2018-10-03T12:55:37.812Z,43.60
2018-10-03T12:56:44.143Z,43.60
2018-10-03T12:57:49.758Z,43.60
2018-10-03T12:58:55.070Z,43.60
2018-10-03T13:00:00.555Z,43.60
2018-10-03T13:01:06.040Z,43.40
2018-10-03T13:02:11.391Z,43.40
2018-10-03T13:03:17.637Z,43.30
2018-10-03T13:04:23.184Z,43.20
2018-10-03T13:05:28.680Z,43.10
2018-10-03T13:06:34.084Z,43.10
2018-10-03T13:07:39.431Z,43.00
2018-10-03T13:08:45.718Z,43.00
2018-10-03T13:09:51.171Z,43.00
2018-10-03T13:10:57.409Z,42.80
2018-10-03T13:12:03.653Z,42.80
2018-10-03T13:13:09.339Z,42.80
2018-10-03T13:14:14.800Z,42.60
2018-10-03T13:15:20.642Z,42.60
2018-10-03T13:16:26.900Z,42.70
2018-10-03T13:17:32.366Z,42.70
2018-10-03T13:18:37.862Z,42.80
2018-10-03T13:19:44.125Z,42.80
2018-10-03T13:20:49.747Z,42.70
2018-10-03T13:21:56.022Z,42.80
2018-10-03T13:23:01.415Z,42.70
2018-10-03T13:24:07.002Z,42.70
2018-10-03T13:25:12.425Z,42.70
2018-10-03T13:26:17.974Z,42.70
2018-10-03T13:27:23.438Z,42.70
2018-10-03T13:28:28.872Z,42.80
2018-10-03T13:29:34.352Z,42.70
2018-10-03T13:30:39.870Z,42.70
2018-10-03T13:31:46.084Z,42.80
2018-10-03T13:32:51.488Z,42.70
2018-10-03T13:33:56.911Z,42.70
2018-10-03T13:35:02.341Z,42.70
2018-10-03T13:36:07.715Z,42.70
2018-10-03T13:37:13.183Z,42.60
2018-10-03T13:38:18.535Z,42.60
2018-10-03T13:39:24.761Z,42.50
2018-10-03T13:40:31.031Z,42.50
2018-10-03T13:41:36.765Z,42.50
2018-10-03T13:42:43.004Z,42.40
2018-10-03T13:43:48.439Z,42.40
2018-10-03T13:44:53.848Z,42.30
2018-10-03T13:45:59.398Z,42.30
2018-10-03T13:47:05.683Z,42.40
2018-10-03T13:48:11.991Z,42.30
2018-10-03T13:49:17.540Z,42.20
2018-10-03T13:50:23.597Z,42.30
2018-10-03T13:51:29.132Z,42.30
2018-10-03T13:52:34.514Z,42.20
2018-10-03T13:53:39.925Z,42.20
2018-10-03T13:54:46.242Z,42.20
2018-10-03T13:55:52.107Z,42.20
2018-10-03T13:56:57.898Z,42.20
2018-10-03T13:58:03.516Z,42.20
2018-10-03T13:59:08.962Z,42.30
2018-10-03T14:00:14.540Z,42.30
2018-10-03T14:01:19.933Z,42.30
2018-10-03T14:02:26.167Z,42.30
2018-10-03T14:03:31.772Z,42.30
2018-10-03T14:04:37.332Z,42.30